Time;durP1;ratioP1;P1;durP2;ratioP2;P2;SDS_P1;SDS_P2;PMS_P1;PMS_P2;Temp;Humidity;BMP_temperature;BMP_pressure;BME280_temperature;BME280_humidity;BME280_pressure;Samples;Min_cycle;Max_cycle;Signal;HPM_P1;HPM_P2
2022/06/03 00:02:02;;;;;;;2.73;2.53;;;22.40;99.90;;;;;;5081606;28;20425;-90
2022/06/03 00:04:36;;;;;;;2.90;2.70;;;22.30;99.90;;;;;;5105996;28;20413;-93
2022/06/03 00:07:21;;;;;;;3.47;2.30;;;22.30;99.90;;;;;;5079725;28;20433;-93
2022/06/03 00:09:53;;;;;;;2.53;2.33;;;22.30;99.90;;;;;;5100687;28;20453;-91
2022/06/03 00:12:36;;;;;;;2.43;2.23;;;22.30;99.90;;;;;;5074424;28;20462;-94
2022/06/03 00:15:37;;;;;;;2.50;2.30;;;22.30;99.90;;;;;;4995538;28;20472;-93
2022/06/03 00:18:36;;;;;;;2.80;2.53;;;22.20;99.90;;;;;;5002269;28;20449;-91
2022/06/03 00:21:04;;;;;;;3.27;2.37;;;22.20;99.90;;;;;;5059339;28;20461;-93
2022/06/03 00:23:58;;;;;;;2.73;2.33;;;22.20;99.90;;;;;;4992370;28;20445;-94
2022/06/03 00:26:42;;;;;;;3.00;2.70;;;22.20;99.90;;;;;;5041855;28;20470;-93
2022/06/03 00:29:48;;;;;;;2.63;2.10;;;22.20;99.90;;;;;;5077158;28;20516;-94
2022/06/03 00:32:45;;;;;;;3.17;2.87;;;22.10;99.90;;;;;;5094465;28;20429;-93
2022/06/03 00:35:39;;;;;;;2.50;2.30;;;22.10;99.90;;;;;;5094097;28;20428;-90
2022/06/03 00:38:26;;;;;;;3.07;2.77;;;22.10;99.90;;;;;;5098182;28;20519;-91
2022/06/03 00:41:29;;;;;;;3.70;2.50;;;22.10;99.90;;;;;;5115924;28;20897;-93
2022/06/03 00:44:13;;;;;;;3.63;2.90;;;22.00;99.90;;;;;;5115959;28;20565;-90
2022/06/03 00:46:57;;;;;;;2.60;2.33;;;22.00;99.90;;;;;;5097426;28;20510;-90
2022/06/03 00:49:25;;;;;;;3.63;2.57;;;22.00;99.90;;;;;;5116216;28;20435;-90
2022/06/03 00:52:04;;;;;;;2.90;2.50;;;21.90;99.90;;;;;;5098531;28;20423;-91
2022/06/03 00:54:44;;;;;;;3.60;3.17;;;21.90;99.90;;;;;;5098011;28;20440;-93
2022/06/03 00:57:30;;;;;;;3.10;2.43;;;21.90;99.90;;;;;;5097418;28;20507;-93
2022/06/03 01:00:04;;;;;;;2.30;2.10;;;21.90;99.90;;;;;;5098185;28;20820;-91
2022/06/03 01:03:07;;;;;;;3.03;2.83;;;21.80;99.90;;;;;;5115607;28;20863;-93
2022/06/03 01:05:48;;;;;;;5.40;3.13;;;21.80;99.90;;;;;;5098079;28;20511;-93
2022/06/03 01:08:36;;;;;;;2.30;2.10;;;21.80;99.90;;;;;;5115467;28;20530;-90
2022/06/03 01:11:27;;;;;;;5.03;2.57;;;21.80;99.90;;;;;;5115128;28;20444;-91
2022/06/03 01:14:13;;;;;;;3.13;2.43;;;21.80;99.90;;;;;;5097750;28;20562;-91
2022/06/03 01:16:58;;;;;;;4.50;2.60;;;21.80;99.90;;;;;;5116757;28;20467;-93
2022/06/03 01:19:36;;;;;;;3.03;2.73;;;21.70;99.90;;;;;;5097153;28;20436;-93
2022/06/03 01:22:28;;;;;;;3.27;2.97;;;21.70;99.90;;;;;;5097102;28;20596;-90
2022/06/03 01:25:18;;;;;;;2.87;2.60;;;21.70;99.90;;;;;;5100616;28;20436;-93
2022/06/03 01:27:47;;;;;;;2.70;2.50;;;21.70;99.90;;;;;;5117064;28;20408;-93
2022/06/03 01:30:21;;;;;;;3.43;3.20;;;21.70;99.90;;;;;;5100326;28;20823;-90
2022/06/03 01:33:01;;;;;;;3.67;2.77;;;21.70;99.90;;;;;;5101425;28;20503;-94
2022/06/03 01:35:40;;;;;;;2.70;2.10;;;21.70;99.90;;;;;;5118161;28;20400;-94
2022/06/03 01:38:26;;;;;;;2.67;2.47;;;21.70;99.90;;;;;;5107487;28;20488;-93
2022/06/03 01:41:27;;;;;;;3.30;3.00;;;21.70;99.90;;;;;;5086762;28;20447;-94
2022/06/03 01:44:15;;;;;;;3.00;2.70;;;21.70;99.90;;;;;;5088329;28;20464;-93
2022/06/03 01:47:08;;;;;;;3.10;2.83;;;21.60;99.90;;;;;;5094284;28;20448;-94
2022/06/03 01:49:42;;;;;;;3.10;2.80;;;21.60;99.90;;;;;;5098452;28;20983;-91
2022/06/03 01:52:26;;;;;;;2.97;2.77;;;21.60;99.90;;;;;;5079182;28;20468;-91
2022/06/03 01:55:23;;;;;;;3.10;2.80;;;21.60;99.90;;;;;;5098192;28;20417;-90
2022/06/03 01:58:16;;;;;;;3.27;2.97;;;21.60;99.90;;;;;;5097090;28;20798;-92
2022/06/03 02:01:04;;;;;;;3.03;2.73;;;21.60;99.90;;;;;;5080204;28;20420;-91
2022/06/03 02:03:48;;;;;;;3.10;2.80;;;21.60;99.90;;;;;;5071592;28;20577;-94
2022/06/03 02:06:32;;;;;;;3.33;3.03;;;21.60;99.90;;;;;;5097396;28;20902;-94
2022/06/03 02:09:05;;;;;;;3.50;3.00;;;21.60;99.90;;;;;;5079284;28;20432;-91
2022/06/03 02:12:00;;;;;;;3.20;2.90;;;21.50;99.90;;;;;;5097480;28;20489;-94
2022/06/03 02:15:07;;;;;;;5.40;3.00;;;21.50;99.90;;;;;;5063054;28;21067;-91
2022/06/03 02:18:14;;;;;;;3.70;3.40;;;21.50;99.90;;;;;;4999567;28;20567;-90
2022/06/03 02:21:14;;;;;;;3.50;3.23;;;21.50;99.90;;;;;;5079271;28;20412;-90
2022/06/03 02:23:53;;;;;;;2.67;2.43;;;21.50;99.90;;;;;;5097947;28;20518;-90
2022/06/03 02:26:53;;;;;;;3.80;3.40;;;21.50;99.90;;;;;;5097315;28;20972;-91
2022/06/03 02:33:03;;;;;;;4.20;3.60;;;21.40;99.90;;;;;;5098908;28;20478;-93
2022/06/03 02:35:47;;;;;;;4.37;3.10;;;21.40;99.90;;;;;;5000561;28;20471;-91
2022/06/03 02:38:27;;;;;;;3.30;3.10;;;21.40;99.90;;;;;;5074012;28;20537;-94
2022/06/03 02:41:08;;;;;;;3.50;3.20;;;21.40;99.90;;;;;;5081046;28;20413;-93
2022/06/03 02:43:59;;;;;;;2.97;2.77;;;21.40;99.90;;;;;;5082206;28;20460;-91
2022/06/03 02:46:59;;;;;;;7.93;3.70;;;21.40;99.90;;;;;;5079988;28;20523;-91
2022/06/03 02:49:46;;;;;;;3.83;2.97;;;21.40;99.90;;;;;;5090432;28;20473;-92
2022/06/03 02:52:24;;;;;;;6.30;3.30;;;21.40;99.90;;;;;;5078130;28;20437;-93
2022/06/03 02:54:59;;;;;;;3.77;3.47;;;21.30;99.90;;;;;;5096685;28;20413;-93
2022/06/03 02:57:37;;;;;;;3.97;3.60;;;21.30;99.90;;;;;;5081188;28;20476;-93
2022/06/03 03:00:09;;;;;;;6.90;3.67;;;21.30;99.90;;;;;;5083712;28;20467;-91
2022/06/03 03:03:05;;;;;;;3.13;2.83;;;21.30;99.90;;;;;;5078535;28;20479;-94
2022/06/03 03:05:50;;;;;;;3.50;3.10;;;21.30;99.90;;;;;;5097661;28;20401;-90
2022/06/03 03:08:27;;;;;;;4.63;3.30;;;21.30;99.90;;;;;;5078350;28;20452;-91
2022/06/03 03:11:05;;;;;;;4.17;3.40;;;21.30;99.90;;;;;;5078305;28;20409;-90
2022/06/03 03:13:51;;;;;;;5.07;3.93;;;21.30;99.90;;;;;;5094818;28;20492;-90
2022/06/03 03:16:52;;;;;;;4.23;3.83;;;21.40;99.90;;;;;;5095829;28;20456;-91
2022/06/03 03:19:50;;;;;;;5.07;3.53;;;21.40;99.90;;;;;;5097765;28;20431;-90
2022/06/03 03:22:18;;;;;;;3.50;3.23;;;21.40;99.90;;;;;;5079107;28;20491;-93
2022/06/03 03:25:23;;;;;;;3.60;3.30;;;21.40;99.90;;;;;;5095991;28;20417;-91
2022/06/03 03:28:18;;;;;;;4.87;3.50;;;21.40;99.90;;;;;;5077423;28;20451;-94
2022/06/03 03:31:20;;;;;;;5.77;4.53;;;21.40;99.90;;;;;;5096048;28;20409;-91
2022/06/03 03:34:25;;;;;;;4.37;3.20;;;21.40;99.90;;;;;;5102956;28;20750;-95
2022/06/03 03:37:18;;;;;;;3.47;3.17;;;21.40;99.90;;;;;;5077269;28;20566;-90
2022/06/03 03:40:10;;;;;;;13.90;10.60;;;21.40;99.90;;;;;;5098233;28;20428;-94
2022/06/03 03:42:50;;;;;;;14.60;8.80;;;21.40;99.90;;;;;;5068378;28;20458;-91
2022/06/03 03:45:40;;;;;;;10.13;6.57;;;21.40;99.90;;;;;;5099027;28;20824;-94
2022/06/03 03:48:27;;;;;;;6.07;4.93;;;21.30;99.90;;;;;;5099674;28;20996;-94
2022/06/03 03:51:12;;;;;;;5.37;4.67;;;21.30;99.90;;;;;;5101737;28;20411;-94
2022/06/03 03:54:11;;;;;;;4.40;4.00;;;21.40;99.90;;;;;;5100308;28;20432;-90
2022/06/03 03:57:04;;;;;;;3.67;3.37;;;21.30;99.90;;;;;;5116346;28;20480;-91
2022/06/03 03:59:54;;;;;;;4.33;3.93;;;21.30;99.90;;;;;;5073791;28;20444;-94
2022/06/03 04:02:42;;;;;;;4.43;4.03;;;21.30;99.90;;;;;;5096085;28;20425;-91
2022/06/03 04:05:45;;;;;;;3.70;3.40;;;21.30;99.90;;;;;;5079318;28;20437;-90
2022/06/03 04:08:55;;;;;;;4.10;3.63;;;21.30;99.90;;;;;;5060824;28;20460;-91
2022/06/03 04:11:55;;;;;;;4.07;3.67;;;21.30;99.90;;;;;;4987389;28;20783;-91
2022/06/03 04:15:01;;;;;;;4.80;4.03;;;21.30;99.90;;;;;;5038707;28;20516;-94
2022/06/03 04:17:45;;;;;;;4.63;4.20;;;21.30;99.90;;;;;;5073886;28;20561;-95
2022/06/03 04:20:10;;;;;;;4.37;3.97;;;21.30;99.90;;;;;;5096643;28;20446;-95
2022/06/03 04:23:22;;;;;;;3.50;3.20;;;21.30;99.90;;;;;;5079156;28;20516;-90
2022/06/03 04:26:26;;;;;;;4.53;4.13;;;21.30;99.90;;;;;;5081745;28;20270;-90
2022/06/03 04:29:48;;;;;;;4.70;3.90;;;21.30;99.90;;;;;;5032819;28;20864;-90
2022/06/03 04:32:29;;;;;;;3.67;3.10;;;21.30;99.90;;;;;;5032354;28;20978;-91
2022/06/03 04:35:07;;;;;;;4.43;4.03;;;21.30;99.90;;;;;;5093041;28;20504;-90
2022/06/03 04:37:59;;;;;;;5.17;3.80;;;21.30;99.90;;;;;;5076640;28;20472;-90
2022/06/03 04:41:05;;;;;;;8.23;5.27;;;21.20;99.90;;;;;;5067846;28;20428;-90
2022/06/03 04:43:37;;;;;;;60.97;31.00;;;21.20;99.90;;;;;;5096964;28;20464;-93
2022/06/03 04:46:21;;;;;;;18.20;11.17;;;21.20;99.90;;;;;;5077428;28;20550;-91
2022/06/03 04:49:19;;;;;;;11.87;8.17;;;21.20;99.90;;;;;;5096689;28;20416;-91
2022/06/03 04:52:03;;;;;;;4.60;4.10;;;21.20;99.90;;;;;;5065459;28;20988;-91
2022/06/03 04:54:43;;;;;;;4.50;4.20;;;21.20;99.90;;;;;;5093805;28;20468;-92
2022/06/03 04:57:30;;;;;;;4.53;4.13;;;21.20;99.90;;;;;;5094872;28;20520;-92
2022/06/03 05:00:22;;;;;;;7.87;4.53;;;21.10;99.90;;;;;;5073019;28;20473;-91
2022/06/03 05:03:03;;;;;;;6.13;3.90;;;21.10;99.90;;;;;;5075560;28;20478;-92
2022/06/03 05:05:40;;;;;;;4.50;3.97;;;21.10;99.90;;;;;;5076460;28;20424;-92
2022/06/03 05:08:37;;;;;;;5.17;4.20;;;21.10;99.90;;;;;;5079509;28;20847;-91
2022/06/03 05:11:45;;;;;;;4.17;3.77;;;21.10;99.90;;;;;;5081370;28;20484;-91
2022/06/03 05:14:46;;;;;;;4.37;3.77;;;21.10;99.90;;;;;;5082498;28;21035;-92
2022/06/03 05:17:43;;;;;;;4.43;4.03;;;21.10;99.90;;;;;;5080392;28;20482;-92
2022/06/03 05:20:31;;;;;;;177.53;78.83;;;21.20;99.90;;;;;;5081294;28;20471;-92
2022/06/03 05:22:57;;;;;;;297.40;126.43;;;21.20;99.90;;;;;;5090818;28;20506;-92
2022/06/03 05:25:51;;;;;;;41.27;15.60;;;21.20;99.90;;;;;;5085507;28;20953;-92
2022/06/03 05:28:45;;;;;;;60.37;21.90;;;21.20;99.90;;;;;;5082891;28;20301;-92
2022/06/03 05:31:46;;;;;;;49.53;9.93;;;21.30;99.90;;;;;;5071647;28;20435;-91
2022/06/03 05:34:39;;;;;;;60.23;10.73;;;21.30;99.90;;;;;;4997989;28;20504;-91
2022/06/03 05:37:23;;;;;;;32.33;7.50;;;21.30;99.90;;;;;;5092840;28;20496;-91
2022/06/03 05:40:00;;;;;;;10.10;4.80;;;21.40;99.90;;;;;;5081194;28;20444;-90
2022/06/03 05:42:56;;;;;;;4.80;4.27;;;21.40;99.90;;;;;;5076762;28;20451;-92
2022/06/03 05:45:59;;;;;;;4.73;4.33;;;21.40;99.90;;;;;;5080631;28;20425;-91
2022/06/03 05:48:28;;;;;;;5.10;3.70;;;21.50;99.90;;;;;;5080556;28;20550;-92
2022/06/03 05:51:13;;;;;;;5.20;4.03;;;21.50;99.90;;;;;;5080880;28;20429;-92
2022/06/03 05:53:46;;;;;;;3.97;3.67;;;21.60;99.90;;;;;;5082350;28;20464;-91
2022/06/03 05:56:50;;;;;;;4.57;4.17;;;21.60;99.90;;;;;;5083452;28;20475;-92
2022/06/03 05:59:47;;;;;;;4.17;3.80;;;21.60;99.90;;;;;;5092859;28;20445;-91
2022/06/03 06:02:21;;;;;;;4.60;4.20;;;21.70;99.90;;;;;;5094810;28;20534;-91
2022/06/03 06:04:59;;;;;;;4.23;3.83;;;21.70;99.90;;;;;;5079150;28;20433;-92
2022/06/03 06:07:30;;;;;;;4.30;3.87;;;21.80;99.90;;;;;;5091716;28;20501;-92
2022/06/03 06:10:26;;;;;;;4.20;3.80;;;21.80;99.90;;;;;;5079432;28;20429;-91
2022/06/03 06:13:13;;;;;;;4.60;3.97;;;21.90;99.90;;;;;;5086718;28;20456;-91
2022/06/03 06:16:12;;;;;;;5.03;4.07;;;22.00;99.90;;;;;;5093438;28;20440;-91
2022/06/03 06:18:48;;;;;;;4.10;3.80;;;22.00;99.90;;;;;;5066540;28;20824;-92
2022/06/03 06:21:32;;;;;;;5.10;4.10;;;22.10;99.90;;;;;;5046508;28;20440;-92
2022/06/03 06:23:58;;;;;;;5.83;3.67;;;22.10;99.90;;;;;;5077661;28;20460;-92
2022/06/03 06:26:48;;;;;;;4.60;4.10;;;22.20;99.90;;;;;;5012230;28;20413;-92
2022/06/03 06:29:32;;;;;;;3.60;3.30;;;22.20;99.90;;;;;;5063039;28;20648;-92
2022/06/03 06:32:22;;;;;;;3.97;3.67;;;22.20;99.90;;;;;;5042191;28;20996;-92
2022/06/03 06:34:59;;;;;;;3.97;3.67;;;22.30;99.90;;;;;;5082851;28;20421;-92
2022/06/03 06:37:48;;;;;;;4.10;3.80;;;22.30;99.90;;;;;;5096492;28;20475;-92
2022/06/03 06:40:17;;;;;;;4.77;4.30;;;22.40;99.90;;;;;;5068626;28;20465;-93
2022/06/03 06:42:52;;;;;;;7.07;4.30;;;22.40;99.90;;;;;;5068015;28;21088;-92
2022/06/03 06:45:51;;;;;;;4.50;3.90;;;22.40;99.90;;;;;;5060528;28;20433;-92
2022/06/03 06:48:31;;;;;;;4.00;3.60;;;22.50;99.90;;;;;;5070511;28;20510;-92
2022/06/03 06:51:03;;;;;;;5.10;4.40;;;22.50;99.90;;;;;;5070752;28;20443;-92
2022/06/03 06:53:57;;;;;;;167.70;103.10;;;22.60;99.90;;;;;;5071772;28;20672;-91
2022/06/03 06:56:43;;;;;;;43.43;28.70;;;22.60;99.90;;;;;;5037297;28;20554;-92
2022/06/03 06:59:24;;;;;;;92.67;51.70;;;22.70;99.90;;;;;;5088141;28;20543;-90
2022/06/03 07:02:00;;;;;;;12.43;8.97;;;22.70;99.90;;;;;;5072038;28;20540;-91
2022/06/03 07:04:41;;;;;;;8.30;5.27;;;22.80;99.90;;;;;;5072684;28;20453;-91
2022/06/03 07:07:23;;;;;;;4.57;4.10;;;22.80;99.90;;;;;;5079765;28;20457;-91
2022/06/03 07:10:05;;;;;;;3.90;3.60;;;22.90;99.90;;;;;;5073252;28;20429;-91
2022/06/03 07:12:55;;;;;;;5.20;4.20;;;23.00;99.90;;;;;;5069331;28;20495;-91
2022/06/03 07:15:25;;;;;;;10.40;4.90;;;23.00;99.90;;;;;;5042963;28;20438;-91
2022/06/03 07:21:09;;;;;;;6.00;4.80;;;23.20;99.90;;;;;;5056062;28;20410;-92
2022/06/03 07:23:37;;;;;;;5.23;4.50;;;23.20;99.90;;;;;;5027972;28;20489;-91
2022/06/03 07:26:27;;;;;;;4.73;4.23;;;23.30;99.90;;;;;;5041790;28;20414;-91
2022/06/03 07:29:15;;;;;;;4.20;3.80;;;23.40;99.90;;;;;;5034097;28;20840;-92
2022/06/03 07:32:19;;;;;;;4.57;3.90;;;23.40;99.90;;;;;;5054658;28;20553;-92
2022/06/03 07:35:00;;;;;;;4.60;4.20;;;23.50;99.90;;;;;;5068368;28;20441;-91
2022/06/03 07:37:35;;;;;;;6.03;4.10;;;23.50;99.90;;;;;;5047933;28;20462;-92
2022/06/03 07:40:28;;;;;;;4.73;4.33;;;23.60;99.90;;;;;;5051054;28;21179;-92
2022/06/03 07:43:24;;;;;;;5.47;4.77;;;23.60;99.90;;;;;;5052458;28;20443;-92
2022/06/03 07:45:56;;;;;;;4.43;4.03;;;23.70;99.90;;;;;;5070144;28;20809;-91
2022/06/03 07:48:25;;;;;;;5.97;4.23;;;23.80;99.90;;;;;;5052692;28;20463;-92
2022/06/03 07:51:19;;;;;;;4.90;4.50;;;23.80;99.90;;;;;;5053249;28;20438;-91
2022/06/03 07:53:54;;;;;;;6.07;4.50;;;23.80;99.90;;;;;;5049821;28;20428;-92
2022/06/03 07:56:22;;;;;;;4.97;4.47;;;23.90;99.90;;;;;;5039751;28;20464;-92
2022/06/03 07:58:51;;;;;;;8.17;4.20;;;23.90;99.90;;;;;;5047288;28;20480;-92
2022/06/03 08:01:27;;;;;;;4.60;4.20;;;24.00;99.90;;;;;;5055337;28;20416;-93
2022/06/03 08:03:53;;;;;;;6.53;3.90;;;23.90;99.90;;;;;;5051299;28;20445;-91
2022/06/03 08:06:27;;;;;;;5.80;4.00;;;24.00;99.90;;;;;;5047439;28;20833;-92
2022/06/03 08:11:42;;;;;;;5.40;4.37;;;24.10;99.90;;;;;;5072964;28;20457;-93
2022/06/03 08:14:08;;;;;;;4.20;3.80;;;24.10;99.90;;;;;;5054003;28;20557;-92
2022/06/03 08:16:38;;;;;;;5.07;4.67;;;24.20;99.90;;;;;;5065269;28;20473;-92
2022/06/03 08:19:15;;;;;;;4.90;3.93;;;24.20;99.90;;;;;;5057377;28;20430;-92
2022/06/03 08:21:52;;;;;;;5.37;4.87;;;24.30;99.90;;;;;;5068624;28;20439;-92
2022/06/03 08:24:30;;;;;;;3.90;3.60;;;24.30;99.90;;;;;;5012811;28;20439;-92
2022/06/03 08:27:01;;;;;;;5.03;4.63;;;24.40;99.90;;;;;;5051366;28;20922;-92
2022/06/03 08:29:48;;;;;;;6.50;4.20;;;24.50;99.90;;;;;;5048817;28;20436;-92
2022/06/03 08:32:22;;;;;;;4.57;4.17;;;24.50;99.90;;;;;;5068370;28;20468;-92
2022/06/03 08:34:50;;;;;;;4.53;4.13;;;24.60;99.90;;;;;;5056192;28;20500;-92
2022/06/03 08:37:23;;;;;;;4.30;4.00;;;24.60;99.90;;;;;;5067363;28;20503;-92
2022/06/03 08:39:51;;;;;;;4.53;4.13;;;24.70;99.90;;;;;;5065992;28;20468;-92
2022/06/03 08:42:29;;;;;;;4.47;4.03;;;24.70;99.90;;;;;;5068415;28;20440;-92
2022/06/03 08:45:32;;;;;;;4.03;3.63;;;24.80;99.90;;;;;;5051829;28;20447;-92
2022/06/03 08:48:04;;;;;;;4.00;3.70;;;24.90;99.90;;;;;;5069625;28;20471;-92
2022/06/03 08:50:39;;;;;;;3.90;3.60;;;24.90;99.90;;;;;;5076519;28;20428;-92
2022/06/03 08:53:33;;;;;;;3.70;3.40;;;25.00;99.90;;;;;;5066119;28;20483;-93
2022/06/03 08:56:10;;;;;;;4.10;3.73;;;25.00;99.90;;;;;;5060901;28;20480;-92
2022/06/03 08:58:58;;;;;;;4.23;3.93;;;25.10;99.90;;;;;;5073212;28;20459;-92
2022/06/03 09:01:45;;;;;;;4.70;4.20;;;25.20;99.90;;;;;;5051925;28;20440;-92
2022/06/03 09:04:20;;;;;;;3.87;3.57;;;25.20;99.90;;;;;;5073988;28;20528;-92
2022/06/03 09:07:22;;;;;;;4.53;3.90;;;25.30;99.90;;;;;;5054702;28;20439;-92
2022/06/03 09:10:05;;;;;;;3.90;3.47;;;25.30;99.90;;;;;;5061732;28;20444;-92
2022/06/03 09:12:31;;;;;;;4.57;4.20;;;25.40;99.90;;;;;;5053914;28;20478;-92
2022/06/03 09:15:03;;;;;;;4.07;3.67;;;25.40;99.90;;;;;;5088830;28;21223;-91
2022/06/03 09:17:54;;;;;;;4.77;4.37;;;25.50;99.90;;;;;;5072626;28;20306;-90
2022/06/03 09:20:29;;;;;;;3.57;3.37;;;25.60;99.90;;;;;;5085068;28;20443;-90
2022/06/03 09:23:10;;;;;;;7.20;3.40;;;25.70;99.90;;;;;;5074987;28;20453;-92
2022/06/03 09:25:43;;;;;;;3.97;3.67;;;25.70;99.90;;;;;;5073864;28;20447;-93
2022/06/03 09:28:14;;;;;;;3.50;3.20;;;25.80;99.90;;;;;;5074015;28;20460;-93
2022/06/03 09:30:41;;;;;;;3.83;3.40;;;25.90;99.90;;;;;;5060333;28;20421;-92
2022/06/03 09:33:12;;;;;;;3.57;3.27;;;26.00;99.90;;;;;;5073263;28;20458;-90
2022/06/03 09:35:42;;;;;;;3.93;3.53;;;26.00;99.90;;;;;;5078811;28;20451;-91
2022/06/03 09:38:10;;;;;;;3.90;3.60;;;26.00;99.90;;;;;;5086580;28;20440;-90
2022/06/03 09:40:44;;;;;;;4.13;3.80;;;26.10;99.90;;;;;;5077197;28;20453;-90
2022/06/03 09:43:13;;;;;;;3.40;3.20;;;26.20;99.90;;;;;;5090168;28;20455;-90
2022/06/03 09:45:41;;;;;;;3.27;2.97;;;26.20;99.90;;;;;;5073510;28;20463;-89
2022/06/03 09:48:09;;;;;;;3.63;2.77;;;26.20;99.90;;;;;;5075032;28;20488;-92
2022/06/03 09:50:36;;;;;;;5.53;3.17;;;26.20;99.90;;;;;;5068533;28;20428;-90
2022/06/03 09:53:05;;;;;;;2.83;2.63;;;26.20;99.90;;;;;;5093079;28;20957;-92
2022/06/03 09:55:38;;;;;;;3.33;2.80;;;26.20;99.90;;;;;;5079096;28;20854;-91
2022/06/03 09:58:08;;;;;;;2.80;2.60;;;26.20;99.90;;;;;;5062017;28;20440;-92
2022/06/03 10:00:48;;;;;;;4.10;3.77;;;26.20;99.90;;;;;;5077548;28;20490;-91
2022/06/03 10:03:21;;;;;;;3.33;3.00;;;26.30;99.90;;;;;;5083329;28;20513;-93
2022/06/03 10:05:54;;;;;;;3.10;2.90;;;26.40;99.90;;;;;;5069542;28;21070;-91
2022/06/03 10:08:24;;;;;;;3.30;3.00;;;26.30;99.90;;;;;;5067604;28;20475;-91
2022/06/03 10:13:39;;;;;;;4.03;3.03;;;26.40;99.90;;;;;;5091379;28;20563;-90
2022/06/03 10:16:07;;;;;;;3.40;3.10;;;26.50;99.90;;;;;;5091708;28;20502;-91
2022/06/03 10:18:36;;;;;;;3.13;2.90;;;26.60;99.90;;;;;;5074588;28;20510;-90
2022/06/03 10:21:08;;;;;;;3.77;3.40;;;26.70;99.90;;;;;;5074492;28;20444;-89
2022/06/03 10:23:55;;;;;;;3.37;3.07;;;26.70;99.90;;;;;;5079145;28;20510;-90
2022/06/03 10:26:30;;;;;;;3.37;3.07;;;26.80;99.90;;;;;;5090075;28;20448;-92
2022/06/03 10:29:04;;;;;;;3.47;3.17;;;26.80;99.90;;;;;;5074120;28;21120;-89
2022/06/03 10:31:31;;;;;;;3.00;2.80;;;26.90;99.90;;;;;;5073927;28;20409;-89
2022/06/03 10:34:00;;;;;;;2.40;2.20;;;26.90;99.90;;;;;;5072562;28;20504;-89
2022/06/03 10:36:39;;;;;;;3.27;2.97;;;27.00;99.90;;;;;;5096646;28;20564;-89
2022/06/03 10:39:06;;;;;;;3.03;2.83;;;27.10;99.90;;;;;;5081352;28;21096;-89
2022/06/03 10:41:53;;;;;;;3.20;2.90;;;27.10;99.90;;;;;;5072975;28;20448;-89
2022/06/03 10:44:25;;;;;;;2.73;2.53;;;27.20;99.90;;;;;;5086347;28;20536;-91
2022/06/03 10:47:04;;;;;;;3.73;3.43;;;27.20;99.90;;;;;;5072221;28;20452;-91
2022/06/03 10:49:51;;;;;;;4.17;3.77;;;27.20;99.90;;;;;;5067687;28;20449;-90
2022/06/03 11:01:22;;;;;;;3.97;3.57;;;27.30;99.90;;;;;;5087334;28;21307;-88
2022/06/03 11:03:50;;;;;;;3.43;2.87;;;27.40;99.90;;;;;;5071130;28;20455;-91
2022/06/03 11:06:22;;;;;;;3.63;3.33;;;27.40;99.90;;;;;;5073749;28;21144;-90
2022/06/03 11:08:50;;;;;;;3.40;3.10;;;27.50;99.90;;;;;;5085651;28;20433;-91
2022/06/03 11:11:30;;;;;;;3.67;3.20;;;27.50;99.90;;;;;;5090365;28;20437;-92
2022/06/03 11:13:55;;;;;;;3.30;3.00;;;27.50;99.90;;;;;;5067782;28;20464;-91
2022/06/03 11:16:24;;;;;;;3.73;2.53;;;27.60;99.90;;;;;;5093882;28;20564;-90
2022/06/03 11:19:20;;;;;;;3.33;3.03;;;27.60;99.90;;;;;;5070662;28;20660;-89
2022/06/03 11:21:47;;;;;;;3.00;2.60;;;27.70;99.90;;;;;;5064305;28;20453;-92
2022/06/03 11:24:14;;;;;;;3.23;2.90;;;27.70;99.90;;;;;;5068892;28;20464;-91
2022/06/03 11:26:44;;;;;;;2.60;2.40;;;27.70;99.90;;;;;;5090441;28;20433;-90
2022/06/03 11:29:27;;;;;;;3.20;2.70;;;27.80;99.90;;;;;;5070545;28;20478;-90
2022/06/03 11:31:54;;;;;;;3.30;2.97;;;27.80;99.90;;;;;;5077324;28;20444;-91
2022/06/03 11:34:37;;;;;;;3.20;2.90;;;27.80;99.90;;;;;;5090659;28;20471;-92
2022/06/03 11:37:25;;;;;;;3.73;2.87;;;27.80;99.90;;;;;;5073614;28;20476;-91
2022/06/03 11:40:06;;;;;;;2.50;2.30;;;27.80;99.90;;;;;;5074199;28;20443;-91
2022/06/03 11:42:41;;;;;;;2.57;2.47;;;27.80;99.90;;;;;;5065678;28;20480;-89
2022/06/03 11:45:31;;;;;;;3.27;2.97;;;27.90;99.90;;;;;;5073533;28;20791;-91
2022/06/03 11:48:16;;;;;;;2.67;2.47;;;27.90;99.90;;;;;;5087633;28;20445;-90
2022/06/03 11:50:42;;;;;;;2.30;2.10;;;28.00;99.80;;;;;;5066397;28;20452;-90
2022/06/03 11:53:08;;;;;;;1.90;1.80;;;28.00;99.90;;;;;;5076259;28;20454;-90
2022/06/03 11:55:38;;;;;;;2.13;2.03;;;27.90;98.70;;;;;;5074742;28;20421;-89
2022/06/03 11:58:40;;;;;;;4.73;2.27;;;28.00;98.80;;;;;;5064974;28;20212;-90
2022/06/03 12:01:14;;;;;;;2.93;2.63;;;28.00;98.50;;;;;;5069831;28;20469;-91
2022/06/03 12:03:51;;;;;;;2.27;2.07;;;28.00;99.10;;;;;;5074990;28;20486;-91
2022/06/03 12:06:25;;;;;;;2.83;2.60;;;28.00;99.30;;;;;;5079330;28;20446;-90
2022/06/03 12:09:13;;;;;;;2.07;1.97;;;28.10;98.60;;;;;;5067715;28;20569;-90
2022/06/03 12:14:38;;;;;;;2.10;1.90;;;28.10;97.70;;;;;;5057511;28;21075;-91
2022/06/03 12:17:13;;;;;;;2.20;2.10;;;28.10;97.10;;;;;;5085005;28;20842;-89
2022/06/03 12:19:52;;;;;;;2.13;2.03;;;28.10;95.90;;;;;;5061852;28;20527;-90
2022/06/03 12:22:35;;;;;;;2.23;1.97;;;28.20;95.20;;;;;;5022147;28;20498;-90
2022/06/03 12:25:05;;;;;;;1.97;1.87;;;28.30;94.80;;;;;;5053350;28;20869;-89
2022/06/03 12:27:38;;;;;;;2.13;2.00;;;28.40;94.80;;;;;;5066674;28;20456;-89
2022/06/03 12:30:13;;;;;;;2.37;2.17;;;28.40;94.60;;;;;;5078444;28;20430;-89
2022/06/03 12:32:46;;;;;;;1.63;1.53;;;28.40;95.20;;;;;;5068964;28;20444;-90
2022/06/03 12:35:42;;;;;;;1.70;1.60;;;28.30;96.00;;;;;;5083164;28;20437;-90
2022/06/03 12:38:21;;;;;;;1.97;1.80;;;28.30;94.90;;;;;;5053829;28;21092;-89
2022/06/03 12:40:56;;;;;;;1.83;1.73;;;28.40;95.80;;;;;;5069399;28;20429;-91
2022/06/03 12:43:46;;;;;;;1.90;1.60;;;28.30;96.30;;;;;;5085421;28;20465;-89
2022/06/03 12:46:34;;;;;;;3.20;1.93;;;28.30;96.60;;;;;;5069595;28;20429;-90
2022/06/03 12:49:00;;;;;;;1.97;1.80;;;28.10;96.90;;;;;;5065736;28;20444;-90
2022/06/03 12:51:28;;;;;;;2.07;1.60;;;28.10;96.20;;;;;;5059290;28;20930;-91
2022/06/03 12:54:17;;;;;;;1.87;1.77;;;28.10;96.60;;;;;;5060562;28;20429;-90
2022/06/03 12:56:55;;;;;;;1.80;1.70;;;28.20;96.30;;;;;;5073111;28;20476;-89
2022/06/03 12:59:55;;;;;;;2.27;2.10;;;28.20;95.50;;;;;;5065705;28;20436;-89
2022/06/03 13:02:24;;;;;;;2.43;2.23;;;28.20;95.20;;;;;;5078662;28;20445;-89
2022/06/03 13:04:53;;;;;;;1.83;1.73;;;28.30;95.80;;;;;;5075012;28;20426;-89
2022/06/03 13:07:32;;;;;;;2.10;1.90;;;28.30;96.10;;;;;;5083486;28;20440;-90
2022/06/03 13:10:04;;;;;;;1.77;1.67;;;28.30;95.10;;;;;;5086874;28;20499;-91
2022/06/03 13:12:33;;;;;;;1.63;1.53;;;28.30;94.20;;;;;;5054352;28;20457;-92
2022/06/03 13:15:20;;;;;;;1.90;1.80;;;28.40;95.30;;;;;;5070853;28;20488;-91
2022/06/03 13:17:58;;;;;;;2.30;2.10;;;28.40;94.00;;;;;;5072264;28;20564;-90
2022/06/03 13:20:41;;;;;;;2.70;2.50;;;28.50;93.80;;;;;;5075253;28;20445;-90
2022/06/03 13:23:19;;;;;;;3.57;2.70;;;28.60;94.60;;;;;;5074728;28;20441;-89
2022/06/03 13:25:50;;;;;;;2.20;2.10;;;28.70;94.10;;;;;;5075716;28;20445;-91
2022/06/03 13:28:30;;;;;;;2.60;2.13;;;28.80;94.20;;;;;;5077786;28;21008;-90
2022/06/03 13:31:09;;;;;;;5.57;2.60;;;28.70;94.60;;;;;;5080303;28;20448;-90
2022/06/03 13:34:00;;;;;;;2.17;2.03;;;28.80;93.80;;;;;;5053308;28;20822;-90
2022/06/03 13:36:33;;;;;;;2.60;2.33;;;28.80;93.70;;;;;;5057510;28;20515;-90
2022/06/03 13:38:59;;;;;;;1.83;1.73;;;28.80;94.20;;;;;;5075916;28;20418;-90
2022/06/03 13:44:49;;;;;;;2.63;2.43;;;28.80;93.60;;;;;;5066952;28;20396;-88
2022/06/03 13:47:24;;;;;;;2.50;2.30;;;28.80;93.40;;;;;;5075536;28;20536;-89
2022/06/03 13:50:39;;;;;;;2.87;2.33;;;28.90;93.00;;;;;;5073316;28;20423;-90
2022/06/03 13:53:10;;;;;;;2.07;1.90;;;29.00;92.70;;;;;;5076117;28;20491;-90
2022/06/03 13:55:36;;;;;;;1.80;1.70;;;29.00;92.10;;;;;;5077998;28;20425;-90
2022/06/03 13:58:16;;;;;;;2.30;2.10;;;29.00;92.00;;;;;;5076013;28;20492;-89
2022/06/03 14:00:51;;;;;;;2.00;1.80;;;29.00;92.00;;;;;;5076950;28;20431;-89
2022/06/03 14:03:30;;;;;;;2.10;2.00;;;29.00;91.00;;;;;;5079269;28;20465;-91
2022/06/03 14:06:05;;;;;;;1.87;1.77;;;29.10;91.10;;;;;;5082749;28;20554;-90
2022/06/03 14:08:42;;;;;;;2.33;2.10;;;29.10;91.10;;;;;;5077866;28;20444;-91
2022/06/03 14:11:16;;;;;;;2.30;2.10;;;29.10;91.70;;;;;;5093417;28;20442;-89
2022/06/03 14:14:00;;;;;;;2.00;1.90;;;29.10;91.30;;;;;;5089230;28;20451;-89
2022/06/03 14:16:35;;;;;;;2.60;1.97;;;29.10;91.10;;;;;;5068252;28;20478;-88
2022/06/03 14:19:09;;;;;;;2.20;1.97;;;29.20;91.00;;;;;;5074665;28;20424;-88
2022/06/03 14:21:38;;;;;;;1.80;1.70;;;29.20;91.40;;;;;;5087260;28;20443;-89
2022/06/03 14:24:35;;;;;;;1.70;1.60;;;29.20;91.60;;;;;;5077807;28;21765;-89
2022/06/03 14:27:06;;;;;;;1.90;1.80;;;29.30;90.80;;;;;;5082293;28;20459;-91
2022/06/03 14:29:38;;;;;;;2.63;2.43;;;29.30;90.80;;;;;;5073460;28;20793;-91